Time;durP1;ratioP1;P1;durP2;ratioP2;P2;SDS_P1;SDS_P2;PMS_P1;PMS_P2;Temp;Humidity;BMP_temperature;BMP_pressure;BME280_temperature;BME280_humidity;BME280_pressure;Samples;Min_cycle;Max_cycle;Signal;HPM_P1;HPM_P2
2022/07/10 00:00:20;;;;;;;6.32;1.80;;;15.30;96.30;;;;;;5032875;28;20452;-43
2022/07/10 00:02:47;;;;;;;11.40;1.85;;;15.20;96.20;;;;;;5030180;28;20052;-43
2022/07/10 00:05:14;;;;;;;8.88;1.65;;;15.20;96.40;;;;;;5032674;28;20041;-43
2022/07/10 00:07:42;;;;;;;10.45;1.58;;;15.10;96.50;;;;;;5032801;28;20124;-43
2022/07/10 00:10:09;;;;;;;10.45;1.70;;;15.20;96.40;;;;;;5029364;28;20051;-43
2022/07/10 00:12:36;;;;;;;7.10;1.63;;;15.20;96.40;;;;;;5029852;28;20129;-43
2022/07/10 00:15:02;;;;;;;8.63;1.65;;;15.20;96.40;;;;;;5032798;28;20141;-42
2022/07/10 00:17:29;;;;;;;9.93;1.80;;;15.20;96.60;;;;;;5032605;28;20568;-42
2022/07/10 00:19:56;;;;;;;10.23;1.70;;;15.10;96.50;;;;;;5032070;28;20172;-42
2022/07/10 00:22:23;;;;;;;13.85;2.20;;;15.10;96.50;;;;;;5031890;28;20149;-43
2022/07/10 00:24:51;;;;;;;7.40;1.45;;;15.10;96.80;;;;;;5032143;28;20045;-43
2022/07/10 00:27:18;;;;;;;7.65;1.70;;;15.10;96.70;;;;;;5032220;28;20501;-42
2022/07/10 00:29:44;;;;;;;11.80;2.42;;;15.00;96.90;;;;;;5031929;28;20041;-42
2022/07/10 00:32:11;;;;;;;12.88;2.17;;;15.00;97.10;;;;;;5032124;28;20041;-43
2022/07/10 00:34:38;;;;;;;10.73;1.98;;;14.90;97.30;;;;;;5031107;28;20525;-42
2022/07/10 00:37:05;;;;;;;11.38;1.80;;;14.90;97.40;;;;;;5032297;28;20069;-43
2022/07/10 00:39:32;;;;;;;8.90;1.75;;;14.90;97.50;;;;;;5032880;28;20460;-44
2022/07/10 00:42:08;;;;;;;13.75;1.70;;;14.80;97.40;;;;;;5031894;28;20449;-44
2022/07/10 00:44:35;;;;;;;6.97;1.45;;;14.90;97.70;;;;;;5030858;28;20060;-43
2022/07/10 00:47:02;;;;;;;9.68;1.63;;;14.90;97.60;;;;;;5031627;28;20183;-43
2022/07/10 00:49:29;;;;;;;9.68;2.13;;;14.80;97.70;;;;;;5032388;28;20103;-43
2022/07/10 00:51:55;;;;;;;9.80;1.80;;;14.90;97.80;;;;;;5031900;28;20077;-42
2022/07/10 00:54:22;;;;;;;7.72;1.75;;;14.80;98.00;;;;;;5030211;28;20136;-43
2022/07/10 00:56:49;;;;;;;9.00;1.75;;;14.80;97.90;;;;;;5030624;28;20080;-43
2022/07/10 00:59:17;;;;;;;14.10;2.15;;;14.90;97.70;;;;;;5032623;28;20144;-44
2022/07/10 01:01:44;;;;;;;15.75;2.55;;;14.90;97.90;;;;;;5031681;28;20049;-42
2022/07/10 01:04:10;;;;;;;8.35;1.38;;;14.80;97.70;;;;;;5028947;28;20042;-43
2022/07/10 01:06:37;;;;;;;8.82;1.63;;;14.90;97.80;;;;;;5031409;28;20084;-44
2022/07/10 01:09:04;;;;;;;12.13;1.80;;;14.80;97.90;;;;;;5030804;28;20073;-42
2022/07/10 01:11:31;;;;;;;12.10;1.77;;;14.80;97.90;;;;;;5029359;28;20121;-43
2022/07/10 01:13:57;;;;;;;11.48;2.20;;;14.80;98.10;;;;;;5031095;28;20046;-42
2022/07/10 01:16:25;;;;;;;10.57;2.03;;;14.70;98.30;;;;;;5031810;28;20059;-42
2022/07/10 01:18:52;;;;;;;7.22;1.52;;;14.70;98.20;;;;;;5031441;28;20063;-44
2022/07/10 01:21:27;;;;;;;10.65;2.00;;;14.70;98.20;;;;;;5029097;28;20041;-44
2022/07/10 01:23:54;;;;;;;10.93;1.85;;;14.60;98.40;;;;;;5031005;28;20140;-43
2022/07/10 01:26:21;;;;;;;11.50;1.90;;;14.60;98.90;;;;;;5030284;28;20132;-43
2022/07/10 01:28:49;;;;;;;15.90;2.40;;;14.60;98.80;;;;;;5029521;28;20389;-43
2022/07/10 01:31:16;;;;;;;9.50;1.88;;;14.50;98.90;;;;;;5028438;28;20041;-43
2022/07/10 01:33:44;;;;;;;14.88;2.33;;;14.50;98.90;;;;;;5031464;28;20133;-43
2022/07/10 01:36:11;;;;;;;11.27;1.73;;;14.50;99.20;;;;;;5031887;28;20537;-42
2022/07/10 01:38:39;;;;;;;13.40;2.00;;;14.40;99.20;;;;;;5035668;28;20076;-42
2022/07/10 01:41:06;;;;;;;19.02;2.17;;;14.50;99.40;;;;;;5031626;28;20553;-43
2022/07/10 01:43:33;;;;;;;13.40;2.28;;;14.40;99.50;;;;;;5033972;28;20041;-43
2022/07/10 01:45:59;;;;;;;10.65;2.05;;;14.40;99.70;;;;;;5035212;28;20080;-43
2022/07/10 01:48:26;;;;;;;11.60;2.25;;;14.40;99.70;;;;;;5034298;28;20045;-42
2022/07/10 01:50:53;;;;;;;13.40;2.05;;;14.30;99.90;;;;;;5033879;28;20046;-43
2022/07/10 01:53:20;;;;;;;12.70;2.42;;;14.30;99.90;;;;;;5035532;28;20132;-43
2022/07/10 01:55:48;;;;;;;10.45;1.85;;;14.30;99.90;;;;;;5034895;28;20116;-44
2022/07/10 01:58:14;;;;;;;9.23;1.88;;;14.30;99.90;;;;;;5034420;28;20440;-43
2022/07/10 02:00:41;;;;;;;10.77;2.03;;;14.20;99.90;;;;;;5033142;28;20440;-43
2022/07/10 02:05:52;;;;;;;7.43;1.80;;;14.20;99.90;;;;;;5033295;28;20041;-42
2022/07/10 02:08:19;;;;;;;9.98;1.95;;;14.20;99.90;;;;;;5031916;28;20128;-41
2022/07/10 02:10:47;;;;;;;7.30;1.58;;;14.20;99.90;;;;;;5031298;28;20085;-42
2022/07/10 02:13:14;;;;;;;11.75;1.80;;;14.20;99.90;;;;;;5034560;28;20134;-43
2022/07/10 02:15:41;;;;;;;8.02;2.20;;;14.10;99.90;;;;;;5034607;28;20041;-43
2022/07/10 02:18:08;;;;;;;10.20;2.05;;;14.10;99.90;;;;;;5035098;28;20041;-43
2022/07/10 02:20:35;;;;;;;14.25;1.85;;;14.10;99.90;;;;;;5033189;28;20509;-43
2022/07/10 02:23:01;;;;;;;12.90;2.33;;;14.10;99.90;;;;;;5035046;28;20099;-43
2022/07/10 02:25:28;;;;;;;12.13;2.25;;;14.00;99.90;;;;;;5033427;28;20554;-43
2022/07/10 02:27:56;;;;;;;13.18;2.75;;;14.00;99.90;;;;;;5032329;28;20146;-43
2022/07/10 02:30:23;;;;;;;8.07;1.52;;;14.00;99.90;;;;;;5032991;28;20088;-43
2022/07/10 02:32:50;;;;;;;8.57;2.40;;;14.00;99.90;;;;;;5033489;28;20121;-42
2022/07/10 02:35:17;;;;;;;15.65;2.03;;;14.00;99.90;;;;;;5033820;28;20091;-43
2022/07/10 02:37:44;;;;;;;13.25;2.05;;;14.00;99.90;;;;;;5033951;28;20111;-42
2022/07/10 02:40:10;;;;;;;10.68;2.20;;;13.90;99.90;;;;;;5030358;28;20541;-42
2022/07/10 02:42:37;;;;;;;11.52;1.65;;;13.90;99.90;;;;;;5034423;28;20120;-43
2022/07/10 02:45:07;;;;;;;12.68;2.03;;;13.90;99.90;;;;;;5032663;28;20053;-42
2022/07/10 02:47:33;;;;;;;15.02;2.28;;;13.90;99.90;;;;;;5031982;28;20124;-42
2022/07/10 02:50:00;;;;;;;11.10;2.35;;;13.90;99.90;;;;;;5032310;28;20049;-43
2022/07/10 02:52:30;;;;;;;7.20;1.42;;;13.80;99.90;;;;;;5031976;28;20445;-43
2022/07/10 02:54:57;;;;;;;14.90;1.92;;;13.80;99.90;;;;;;5032806;28;20053;-43
2022/07/10 02:57:24;;;;;;;10.98;2.55;;;13.80;99.90;;;;;;5033065;28;20136;-42
2022/07/10 02:59:50;;;;;;;13.45;2.20;;;13.80;99.90;;;;;;5033060;28;20478;-43
2022/07/10 03:02:18;;;;;;;9.82;1.63;;;13.70;99.90;;;;;;5033590;28;20396;-42
2022/07/10 03:04:45;;;;;;;9.52;1.92;;;13.80;99.90;;;;;;5033030;28;20049;-43
2022/07/10 03:07:12;;;;;;;8.50;1.85;;;13.70;99.90;;;;;;5031968;28;20053;-43
2022/07/10 03:09:39;;;;;;;8.73;1.80;;;13.70;99.90;;;;;;5032473;28;20077;-43
2022/07/10 03:12:07;;;;;;;15.55;2.25;;;13.70;99.90;;;;;;5030162;28;20516;-44
2022/07/10 03:14:33;;;;;;;10.45;1.73;;;13.70;99.90;;;;;;5029440;28;20072;-43
2022/07/10 03:17:00;;;;;;;8.70;1.77;;;13.60;99.90;;;;;;5032439;28;20085;-42
2022/07/10 03:19:28;;;;;;;11.70;2.33;;;13.70;99.90;;;;;;5032068;28;20505;-42
2022/07/10 03:21:55;;;;;;;12.80;1.77;;;13.60;99.90;;;;;;5033192;28;20461;-42
2022/07/10 03:24:22;;;;;;;8.23;1.70;;;13.70;99.90;;;;;;5033375;28;20474;-43
2022/07/10 03:26:48;;;;;;;8.90;1.83;;;13.60;99.90;;;;;;5033260;28;20425;-43
2022/07/10 03:29:15;;;;;;;7.53;1.52;;;13.60;99.90;;;;;;5031709;28;20083;-42
2022/07/10 03:31:42;;;;;;;10.85;1.95;;;13.60;99.90;;;;;;5031206;28;21966;-43
2022/07/10 03:34:09;;;;;;;11.85;1.95;;;13.70;99.90;;;;;;5032632;28;20046;-43
2022/07/10 03:36:38;;;;;;;13.02;1.83;;;13.70;99.90;;;;;;5031404;28;20053;-43
2022/07/10 03:39:04;;;;;;;9.48;1.80;;;13.70;99.90;;;;;;5032460;28;20049;-44
2022/07/10 03:41:31;;;;;;;10.15;1.95;;;13.70;99.90;;;;;;5033008;28;20073;-43
2022/07/10 03:43:58;;;;;;;10.25;1.75;;;13.80;99.90;;;;;;5031897;28;20195;-43
2022/07/10 03:46:24;;;;;;;8.77;1.25;;;13.70;99.90;;;;;;5031400;28;20053;-43
2022/07/10 03:48:51;;;;;;;11.23;2.67;;;13.80;99.90;;;;;;5031156;28;20073;-43
2022/07/10 03:51:18;;;;;;;8.10;1.45;;;13.80;99.90;;;;;;5030412;28;20126;-44
2022/07/10 03:53:46;;;;;;;12.20;1.80;;;13.80;99.90;;;;;;5032118;28;20136;-43
2022/07/10 03:57:53;;;;;;;13.27;1.80;;;13.90;99.90;;;;;;5029535;28;20136;-44
2022/07/10 03:58:59;;;;;;;9.32;1.65;;;13.90;99.90;;;;;;5031737;28;20041;-43
2022/07/10 04:01:25;;;;;;;10.20;2.03;;;13.90;99.90;;;;;;5032176;28;20192;-43
2022/07/10 04:03:52;;;;;;;11.25;1.65;;;13.90;99.90;;;;;;5030345;28;20124;-43
2022/07/10 04:06:19;;;;;;;12.63;1.63;;;13.90;99.90;;;;;;5031667;28;20034;-43
2022/07/10 04:08:47;;;;;;;14.07;2.28;;;14.00;99.90;;;;;;5029738;28;20104;-44
2022/07/10 04:11:14;;;;;;;8.95;1.60;;;14.00;99.90;;;;;;5031877;28;20092;-43
2022/07/10 04:13:40;;;;;;;10.05;1.77;;;14.00;99.90;;;;;;5030530;28;20081;-43
2022/07/10 04:16:11;;;;;;;12.45;1.77;;;14.10;99.90;;;;;;5029559;28;20091;-43
2022/07/10 04:18:38;;;;;;;17.50;1.98;;;14.00;99.90;;;;;;5030559;28;20052;-43
2022/07/10 04:21:05;;;;;;;9.18;1.77;;;14.00;99.90;;;;;;5032481;28;20124;-43
2022/07/10 04:23:33;;;;;;;10.05;1.33;;;14.10;99.90;;;;;;5031300;28;20132;-43
2022/07/10 04:26:01;;;;;;;15.88;1.70;;;14.10;99.90;;;;;;5032278;28;20132;-43
2022/07/10 04:28:27;;;;;;;7.28;1.67;;;14.00;99.90;;;;;;5032256;28;20128;-42
2022/07/10 04:30:54;;;;;;;10.18;2.30;;;14.10;99.90;;;;;;5030624;28;20133;-43
2022/07/10 04:33:21;;;;;;;10.68;1.25;;;14.10;99.90;;;;;;5031616;28;20124;-42
2022/07/10 04:35:48;;;;;;;10.85;1.67;;;14.10;99.90;;;;;;5032248;28;20216;-42
2022/07/10 04:38:14;;;;;;;9.98;1.73;;;14.10;99.90;;;;;;5031365;28;20042;-42
2022/07/10 04:40:41;;;;;;;13.45;1.60;;;14.10;99.90;;;;;;5030765;28;20140;-42
2022/07/10 04:43:09;;;;;;;16.20;1.92;;;14.10;99.90;;;;;;5032052;28;20044;-42
2022/07/10 04:45:37;;;;;;;8.32;1.90;;;14.20;99.90;;;;;;5030923;28;20038;-42
2022/07/10 04:48:04;;;;;;;11.98;2.35;;;14.20;99.90;;;;;;5031107;28;20049;-42
2022/07/10 04:50:31;;;;;;;7.75;1.40;;;14.20;99.90;;;;;;5032068;28;20128;-43
2022/07/10 04:52:58;;;;;;;11.02;1.83;;;14.30;99.90;;;;;;5032101;28;20052;-42
2022/07/10 04:55:25;;;;;;;12.90;2.42;;;14.30;99.90;;;;;;5030646;28;20508;-43
2022/07/10 04:57:51;;;;;;;14.57;2.38;;;14.30;99.90;;;;;;5032500;28;20150;-43
2022/07/10 05:00:19;;;;;;;13.55;2.00;;;14.40;99.90;;;;;;5029331;28;20456;-43
2022/07/10 05:02:46;;;;;;;10.15;1.80;;;14.40;99.90;;;;;;5030743;28;20290;-43
2022/07/10 05:05:13;;;;;;;12.48;1.70;;;14.50;99.90;;;;;;5031502;28;20056;-43
2022/07/10 05:07:40;;;;;;;6.32;1.35;;;14.50;99.90;;;;;;5031490;28;20133;-43
2022/07/10 05:10:07;;;;;;;7.45;1.40;;;14.60;99.90;;;;;;5029478;28;20408;-42
2022/07/10 05:12:34;;;;;;;14.82;2.00;;;14.60;99.90;;;;;;5034232;28;20457;-44
2022/07/10 05:15:01;;;;;;;12.55;1.92;;;14.70;99.90;;;;;;5035105;28;20049;-42
2022/07/10 05:17:29;;;;;;;12.75;2.22;;;14.70;99.90;;;;;;5034987;28;20088;-42
2022/07/10 05:19:56;;;;;;;15.85;2.30;;;14.70;99.90;;;;;;5035435;28;20041;-42
2022/07/10 05:22:23;;;;;;;12.30;2.10;;;14.70;99.90;;;;;;5036143;28;20049;-43
2022/07/10 05:24:49;;;;;;;12.95;1.85;;;14.70;99.90;;;;;;5034910;28;20103;-42
2022/07/10 05:27:17;;;;;;;12.80;2.20;;;14.80;99.90;;;;;;5034465;28;20212;-42
2022/07/10 05:29:44;;;;;;;12.20;1.90;;;14.80;99.90;;;;;;5034864;28;20037;-42
2022/07/10 05:32:11;;;;;;;13.15;2.47;;;14.90;99.90;;;;;;5034408;28;20076;-43
2022/07/10 05:34:39;;;;;;;8.82;2.25;;;14.90;99.90;;;;;;5030571;28;20128;-43
2022/07/10 05:37:06;;;;;;;12.63;2.22;;;15.00;99.90;;;;;;5033765;28;20133;-43
2022/07/10 05:39:33;;;;;;;16.95;2.83;;;15.00;99.90;;;;;;5031344;28;20492;-43
2022/07/10 05:42:03;;;;;;;12.05;2.33;;;15.00;99.90;;;;;;5035771;28;20124;-42
2022/07/10 05:44:30;;;;;;;15.82;3.55;;;15.00;99.90;;;;;;5034252;28;20116;-42
2022/07/10 05:46:57;;;;;;;11.57;2.08;;;15.10;99.90;;;;;;5033848;28;20050;-42
2022/07/10 05:49:24;;;;;;;10.90;2.40;;;15.10;99.90;;;;;;5032031;28;20060;-43
2022/07/10 05:51:52;;;;;;;11.70;2.80;;;15.20;99.90;;;;;;5034618;28;20096;-43
2022/07/10 05:54:18;;;;;;;12.48;2.25;;;15.20;99.90;;;;;;5034622;28;20075;-43
2022/07/10 05:56:45;;;;;;;10.43;2.05;;;15.20;99.90;;;;;;5034316;28;20431;-43
2022/07/10 05:59:12;;;;;;;9.05;2.50;;;15.30;99.90;;;;;;5032719;28;20056;-43
2022/07/10 06:01:39;;;;;;;16.73;3.20;;;15.30;99.90;;;;;;5032295;28;20071;-42
2022/07/10 06:04:06;;;;;;;16.98;2.75;;;15.40;99.90;;;;;;5032657;28;20132;-42
2022/07/10 06:06:32;;;;;;;19.33;2.40;;;15.50;99.90;;;;;;5033319;28;20368;-43
2022/07/10 06:09:00;;;;;;;14.20;2.80;;;15.50;99.90;;;;;;5030028;28;20077;-43
2022/07/10 06:11:27;;;;;;;13.85;2.55;;;15.60;99.90;;;;;;5033909;28;20049;-43
2022/07/10 06:13:54;;;;;;;19.33;3.22;;;15.60;99.90;;;;;;5033744;28;20128;-43
2022/07/10 06:16:21;;;;;;;15.40;2.90;;;15.70;99.90;;;;;;5034470;28;20087;-43
2022/07/10 06:18:47;;;;;;;10.63;2.42;;;15.70;99.90;;;;;;5032695;28;20561;-43
2022/07/10 06:21:14;;;;;;;12.55;2.60;;;15.70;99.90;;;;;;5033359;28;20091;-43
2022/07/10 06:23:41;;;;;;;13.52;2.60;;;15.70;99.90;;;;;;5033538;28;20052;-44
2022/07/10 06:26:09;;;;;;;11.38;1.95;;;15.80;99.90;;;;;;5033977;28;20130;-42
2022/07/10 06:28:36;;;;;;;12.68;2.45;;;15.80;99.90;;;;;;5033115;28;20069;-43
2022/07/10 06:31:03;;;;;;;16.45;2.67;;;15.90;99.90;;;;;;5032873;28;20400;-43
2022/07/10 06:33:29;;;;;;;9.07;2.67;;;15.90;99.90;;;;;;5033173;28;20132;-43
2022/07/10 06:35:56;;;;;;;14.73;2.75;;;16.00;99.90;;;;;;5032605;28;20050;-43
2022/07/10 06:38:23;;;;;;;14.38;2.30;;;16.00;99.90;;;;;;5032892;28;20076;-42
2022/07/10 06:40:50;;;;;;;12.20;2.35;;;16.00;99.90;;;;;;5031734;28;20136;-42
2022/07/10 06:43:18;;;;;;;10.98;2.35;;;16.00;99.90;;;;;;5033187;28;20103;-43
2022/07/10 06:45:45;;;;;;;14.55;2.35;;;16.00;99.90;;;;;;5032719;28;20064;-43
2022/07/10 06:48:11;;;;;;;12.98;3.00;;;16.00;99.90;;;;;;5025222;28;20120;-43
2022/07/10 06:50:37;;;;;;;8.93;2.00;;;16.00;99.90;;;;;;5030040;28;20125;-44
2022/07/10 06:53:04;;;;;;;11.25;2.03;;;16.00;99.90;;;;;;5030479;28;20045;-43
2022/07/10 06:55:31;;;;;;;8.45;2.08;;;16.00;99.90;;;;;;5032975;28;20084;-43
2022/07/10 06:57:58;;;;;;;8.40;2.63;;;16.00;99.90;;;;;;5032097;28;20049;-44
2022/07/10 07:00:27;;;;;;;12.85;2.35;;;16.00;99.90;;;;;;5029382;28;20705;-43
2022/07/10 07:02:53;;;;;;;10.98;2.70;;;16.10;99.90;;;;;;5030571;28;20038;-43
2022/07/10 07:05:20;;;;;;;13.48;2.17;;;16.10;99.90;;;;;;5032343;28;20132;-43
2022/07/10 07:07:47;;;;;;;10.30;1.95;;;16.10;99.90;;;;;;5032389;28;20045;-43
2022/07/10 07:10:14;;;;;;;8.60;1.88;;;16.10;99.90;;;;;;5031206;28;20041;-43
2022/07/10 07:12:40;;;;;;;7.53;1.75;;;16.10;99.90;;;;;;5031672;28;20083;-43
2022/07/10 07:15:08;;;;;;;13.13;2.03;;;16.10;99.90;;;;;;5045028;28;20055;-44
2022/07/10 07:17:56;;;;;;;12.52;2.30;;;16.10;99.90;;;;;;5025213;28;20037;-43
2022/07/10 07:23:17;;;;;;;6.05;1.40;;;16.10;99.90;;;;;;4992902;28;20054;-44
2022/07/10 07:25:46;;;;;;;5.72;1.50;;;16.10;99.90;;;;;;5030745;28;20037;-43
2022/07/10 07:28:15;;;;;;;4.57;1.40;;;16.10;99.90;;;;;;5027208;28;20052;-43
2022/07/10 07:30:41;;;;;;;7.38;2.00;;;16.00;99.90;;;;;;5029967;28;20041;-44
2022/07/10 07:33:09;;;;;;;7.80;2.00;;;16.00;99.90;;;;;;5026288;28;20497;-44
2022/07/10 07:35:36;;;;;;;8.35;1.45;;;16.00;99.90;;;;;;5031872;28;20428;-44
2022/07/10 07:38:03;;;;;;;5.63;1.42;;;16.00;99.90;;;;;;5031018;28;20533;-44
2022/07/10 07:40:30;;;;;;;5.22;1.25;;;16.00;99.90;;;;;;5031005;28;20130;-45
2022/07/10 07:42:57;;;;;;;6.10;1.77;;;16.00;99.90;;;;;;5031961;28;20053;-43
2022/07/10 07:45:24;;;;;;;6.47;1.60;;;16.10;99.90;;;;;;5031093;28;20041;-44
2022/07/10 07:47:52;;;;;;;7.30;1.75;;;16.20;99.90;;;;;;5031355;28;20426;-44
2022/07/10 07:50:21;;;;;;;7.30;1.58;;;16.40;99.90;;;;;;5031259;28;20042;-43
2022/07/10 07:52:48;;;;;;;6.28;1.48;;;16.40;99.90;;;;;;5032219;28;20050;-44
2022/07/10 07:55:15;;;;;;;6.47;1.30;;;16.50;99.90;;;;;;5031893;28;20081;-43
2022/07/10 07:57:43;;;;;;;7.65;1.60;;;16.60;99.90;;;;;;5020724;28;20072;-44
2022/07/10 08:00:11;;;;;;;8.55;1.42;;;16.70;99.90;;;;;;5032721;28;20481;-43
2022/07/10 08:02:37;;;;;;;4.78;1.50;;;16.80;99.90;;;;;;5030368;28;20490;-42
2022/07/10 08:05:05;;;;;;;5.38;1.10;;;16.90;99.90;;;;;;5031777;28;20084;-43
2022/07/10 08:07:37;;;;;;;6.43;1.23;;;17.00;99.90;;;;;;5030384;28;20041;-42
2022/07/10 08:10:04;;;;;;;3.83;1.15;;;17.00;99.90;;;;;;5032138;28;20045;-41
2022/07/10 08:12:31;;;;;;;6.45;1.50;;;17.00;99.90;;;;;;5032932;28;20482;-43
2022/07/10 08:14:59;;;;;;;5.97;1.13;;;17.10;99.90;;;;;;5032634;28;20045;-43
2022/07/10 08:17:25;;;;;;;6.32;1.20;;;17.10;99.90;;;;;;5030256;28;20075;-43
2022/07/10 08:19:52;;;;;;;5.22;1.25;;;17.00;99.90;;;;;;5031542;28;20081;-43
2022/07/10 08:22:19;;;;;;;6.07;1.10;;;17.10;99.90;;;;;;5029200;28;20482;-43
2022/07/10 08:24:47;;;;;;;5.43;1.30;;;17.00;99.90;;;;;;5030994;28;20095;-44
2022/07/10 08:27:15;;;;;;;5.05;1.23;;;16.90;99.90;;;;;;5030903;28;20049;-44
2022/07/10 08:29:42;;;;;;;7.38;1.30;;;16.80;99.90;;;;;;5030922;28;20041;-44
2022/07/10 08:32:09;;;;;;;7.22;1.35;;;16.70;99.90;;;;;;5030175;28;20069;-44
2022/07/10 08:34:36;;;;;;;3.10;1.02;;;16.70;99.90;;;;;;5032026;28;20042;-43
2022/07/10 08:37:03;;;;;;;5.57;1.30;;;16.60;99.90;;;;;;5030577;28;20045;-44
2022/07/10 08:39:29;;;;;;;6.63;1.52;;;16.60;99.90;;;;;;5031278;28;20121;-43
2022/07/10 08:41:57;;;;;;;4.25;1.10;;;16.60;99.90;;;;;;5030709;28;20045;-44
2022/07/10 08:44:24;;;;;;;3.20;1.00;;;16.60;99.90;;;;;;5031130;28;20125;-44
2022/07/10 08:46:51;;;;;;;11.05;1.52;;;16.60;99.90;;;;;;5032305;28;20084;-45
2022/07/10 08:49:18;;;;;;;3.50;1.20;;;16.60;99.90;;;;;;5034101;28;20470;-44
2022/07/10 08:51:48;;;;;;;4.85;1.38;;;16.60;99.90;;;;;;5035536;28;20507;-43
2022/07/10 08:54:15;;;;;;;5.03;1.05;;;16.50;99.90;;;;;;5035684;28;20100;-43
2022/07/10 08:56:42;;;;;;;7.20;1.50;;;16.50;99.90;;;;;;5016407;28;20478;-44
2022/07/10 08:59:10;;;;;;;4.47;1.10;;;16.50;99.90;;;;;;5028080;28;20050;-45
2022/07/10 09:01:37;;;;;;;5.72;1.52;;;16.50;99.90;;;;;;5035352;28;20054;-44
2022/07/10 09:04:04;;;;;;;4.80;0.80;;;16.60;99.90;;;;;;5031661;28;20196;-44
2022/07/10 09:06:30;;;;;;;3.97;1.08;;;16.60;99.90;;;;;;5035929;28;20536;-44
2022/07/10 09:09:02;;;;;;;8.02;1.40;;;16.70;99.90;;;;;;5034420;28;20069;-45
2022/07/10 09:11:30;;;;;;;3.97;1.10;;;16.70;99.90;;;;;;5033514;28;20124;-45
2022/07/10 09:13:57;;;;;;;2.88;1.00;;;16.80;99.90;;;;;;5033146;28;20489;-44
2022/07/10 09:16:26;;;;;;;4.13;1.20;;;16.90;99.90;;;;;;5033744;28;20132;-43
2022/07/10 09:18:53;;;;;;;3.95;1.80;;;17.00;99.90;;;;;;5035716;28;20088;-44
2022/07/10 09:21:20;;;;;;;7.90;1.67;;;17.20;99.90;;;;;;5033229;28;20080;-43
2022/07/10 09:23:47;;;;;;;2.85;1.25;;;17.30;99.90;;;;;;5035255;28;20092;-43
2022/07/10 09:26:14;;;;;;;5.57;1.40;;;17.40;99.90;;;;;;5034594;28;20049;-43
2022/07/10 09:28:40;;;;;;;8.32;1.83;;;17.50;99.90;;;;;;5034509;28;20124;-43
2022/07/10 09:31:07;;;;;;;7.68;1.48;;;17.50;99.90;;;;;;5034825;28;20052;-43
2022/07/10 09:33:37;;;;;;;5.07;1.70;;;17.50;99.90;;;;;;5033081;28;20046;-43
2022/07/10 09:36:07;;;;;;;6.13;1.83;;;17.50;99.90;;;;;;5035783;28;20051;-44
2022/07/10 09:38:54;;;;;;;10.77;1.60;;;17.60;99.90;;;;;;5034799;28;20064;-43
2022/07/10 09:41:25;;;;;;;8.50;1.73;;;17.60;99.90;;;;;;5035364;28;20407;-44
2022/07/10 09:43:53;;;;;;;7.57;1.67;;;17.70;99.90;;;;;;5035622;28;20037;-42
2022/07/10 09:46:21;;;;;;;7.55;1.60;;;17.60;99.90;;;;;;5033141;28;20564;-43
2022/07/10 09:48:49;;;;;;;6.25;1.60;;;17.60;99.90;;;;;;5035675;28;20052;-42
2022/07/10 09:51:15;;;;;;;5.80;1.38;;;17.70;99.90;;;;;;5033694;28;20133;-42
2022/07/10 09:53:43;;;;;;;5.40;1.50;;;17.70;99.90;;;;;;5035953;28;20052;-42
2022/07/10 09:56:11;;;;;;;7.80;1.40;;;17.80;99.90;;;;;;5034066;28;20049;-43
2022/07/10 09:58:38;;;;;;;5.15;1.77;;;17.80;99.90;;;;;;5030917;28;20548;-43
2022/07/10 10:01:05;;;;;;;6.60;1.38;;;17.80;99.90;;;;;;5033507;28;20085;-43
2022/07/10 10:03:35;;;;;;;7.47;1.23;;;17.80;99.90;;;;;;5032415;28;20116;-43
2022/07/10 10:06:04;;;;;;;4.38;1.33;;;17.80;99.90;;;;;;5032241;28;20469;-42
2022/07/10 10:08:33;;;;;;;5.90;1.52;;;17.70;99.90;;;;;;5031329;28;20124;-43
2022/07/10 10:11:00;;;;;;;5.13;1.50;;;17.60;99.90;;;;;;5025793;28;20136;-43
2022/07/10 10:13:27;;;;;;;7.07;1.70;;;17.50;99.90;;;;;;5031867;28;20049;-43
2022/07/10 10:15:54;;;;;;;7.60;1.80;;;17.50;99.90;;;;;;5033967;28;20056;-42
2022/07/10 10:18:22;;;;;;;7.95;1.65;;;17.60;99.90;;;;;;5033891;28;20076;-42
2022/07/10 10:20:48;;;;;;;6.70;1.50;;;17.60;99.90;;;;;;5034563;28;20127;-42
2022/07/10 10:23:20;;;;;;;8.80;1.80;;;17.70;99.90;;;;;;5027358;28;20560;-42
2022/07/10 10:25:46;;;;;;;4.68;1.73;;;17.70;99.90;;;;;;5033674;28;20137;-42
2022/07/10 10:28:14;;;;;;;5.32;1.40;;;17.70;99.90;;;;;;5032731;28;20065;-42
2022/07/10 10:30:42;;;;;;;6.45;1.70;;;17.70;99.90;;;;;;5034328;28;20079;-42
2022/07/10 10:33:46;;;;;;;5.10;1.63;;;17.70;99.90;;;;;;5028061;28;20049;-42
2022/07/10 10:36:17;;;;;;;6.22;1.45;;;17.70;99.90;;;;;;5022180;28;20472;-43
2022/07/10 10:39:05;;;;;;;8.32;2.00;;;17.80;99.90;;;;;;5030913;28;20119;-42
2022/07/10 10:41:37;;;;;;;5.45;1.75;;;17.80;99.90;;;;;;5032171;28;20128;-42
2022/07/10 10:44:24;;;;;;;7.00;1.70;;;17.80;99.90;;;;;;5031913;28;20041;-43
2022/07/10 10:47:01;;;;;;;8.02;1.60;;;17.90;99.90;;;;;;5031451;28;20121;-42
2022/07/10 10:49:27;;;;;;;8.45;1.75;;;17.90;99.90;;;;;;5032271;28;20053;-43
2022/07/10 10:51:58;;;;;;;12.32;2.33;;;17.90;99.90;;;;;;5031827;28;20116;-44
2022/07/10 10:54:26;;;;;;;6.87;1.50;;;18.10;99.90;;;;;;5032066;28;20041;-43
2022/07/10 10:57:14;;;;;;;6.72;1.70;;;18.30;99.90;;;;;;5030781;28;20098;-44
2022/07/10 10:59:47;;;;;;;8.02;1.90;;;18.50;99.90;;;;;;5063297;28;20037;-43
2022/07/10 11:02:25;;;;;;;8.77;1.90;;;18.60;99.90;;;;;;5028999;28;20060;-43
2022/07/10 11:04:52;;;;;;;7.95;1.90;;;18.70;99.90;;;;;;5031466;28;20071;-43
2022/07/10 11:07:52;;;;;;;8.68;2.00;;;18.90;99.90;;;;;;5027438;28;20065;-43
2022/07/10 11:10:30;;;;;;;6.43;1.80;;;19.00;99.90;;;;;;5030073;28;20049;-43
2022/07/10 11:13:00;;;;;;;7.30;1.52;;;19.10;99.90;;;;;;5034021;28;20133;-43
2022/07/10 11:15:29;;;;;;;8.65;1.95;;;19.10;99.90;;;;;;5033604;28;20048;-44
2022/07/10 11:17:56;;;;;;;18.15;2.10;;;19.10;99.90;;;;;;5029086;28;20049;-44
2022/07/10 11:20:23;;;;;;;7.68;1.65;;;19.10;99.90;;;;;;5027541;28;20053;-43
2022/07/10 11:22:53;;;;;;;7.57;1.67;;;18.90;99.90;;;;;;5030504;28;20079;-44
2022/07/10 11:25:44;;;;;;;7.63;1.65;;;18.90;99.90;;;;;;5030801;28;20076;-43
2022/07/10 11:28:12;;;;;;;8.40;1.80;;;18.80;99.90;;;;;;5024339;28;20049;-43
2022/07/10 11:30:45;;;;;;;7.07;1.90;;;18.90;99.90;;;;;;5030000;28;20320;-44
2022/07/10 11:33:12;;;;;;;6.97;1.63;;;19.00;99.90;;;;;;5028182;28;20152;-43
2022/07/10 11:35:39;;;;;;;5.38;1.80;;;19.10;99.90;;;;;;5030427;28;20044;-43
2022/07/10 11:38:06;;;;;;;6.65;1.88;;;19.30;99.90;;;;;;5031333;28;20057;-42
2022/07/10 11:40:37;;;;;;;7.70;1.73;;;19.30;99.90;;;;;;5030778;28;20389;-43
2022/07/10 11:43:06;;;;;;;6.80;1.88;;;19.30;99.90;;;;;;5029637;28;20470;-43
2022/07/10 11:45:36;;;;;;;7.63;1.45;;;19.30;99.90;;;;;;5029831;28;20044;-43
2022/07/10 11:48:04;;;;;;;8.65;1.52;;;19.20;99.90;;;;;;5042188;28;20060;-42
2022/07/10 11:50:36;;;;;;;3.78;1.27;;;19.10;99.90;;;;;;5030278;28;20531;-43
2022/07/10 11:53:03;;;;;;;10.02;1.38;;;19.10;99.90;;;;;;5029699;28;20045;-43
2022/07/10 11:55:31;;;;;;;4.88;1.15;;;19.00;99.90;;;;;;5030619;28;20055;-43
2022/07/10 11:57:58;;;;;;;5.32;1.50;;;19.10;99.90;;;;;;5029333;28;20045;-43
2022/07/10 12:00:30;;;;;;;6.90;1.40;;;19.10;99.90;;;;;;5032565;28;20121;-43
2022/07/10 12:02:58;;;;;;;8.07;1.55;;;19.10;99.90;;;;;;5031947;28;20053;-42
2022/07/10 12:05:34;;;;;;;7.13;1.65;;;19.10;99.90;;;;;;5028824;28;20215;-43
2022/07/10 12:08:01;;;;;;;10.02;2.65;;;19.00;99.90;;;;;;5030284;28;20045;-42
2022/07/10 12:10:28;;;;;;;5.15;1.80;;;18.90;99.90;;;;;;5031125;28;20092;-43
2022/07/10 12:12:54;;;;;;;6.97;1.80;;;18.80;99.90;;;;;;5021928;28;20155;-43
2022/07/10 12:15:41;;;;;;;6.15;1.45;;;18.70;99.90;;;;;;5024989;28;20137;-43
2022/07/10 12:18:08;;;;;;;9.30;1.60;;;18.60;99.90;;;;;;5028981;28;20448;-43
2022/07/10 12:20:36;;;;;;;10.30;1.63;;;18.50;99.90;;;;;;5029441;28;20436;-43
2022/07/10 12:23:04;;;;;;;8.75;1.77;;;18.50;99.90;;;;;;5024739;28;20053;-44
2022/07/10 12:25:31;;;;;;;10.63;1.73;;;18.50;99.90;;;;;;5029255;28;20055;-44
2022/07/10 12:27:58;;;;;;;8.40;1.70;;;18.50;99.90;;;;;;5014754;28;20065;-43
2022/07/10 12:30:36;;;;;;;7.68;1.95;;;18.60;99.90;;;;;;5030454;28;20052;-44
2022/07/10 12:33:08;;;;;;;4.43;1.40;;;18.60;99.90;;;;;;5032525;28;20064;-44
2022/07/10 12:35:47;;;;;;;7.22;1.75;;;18.60;99.90;;;;;;5029624;28;20041;-42
2022/07/10 12:38:19;;;;;;;8.13;1.60;;;18.70;99.90;;;;;;5025148;28;20470;-43
2022/07/10 12:40:46;;;;;;;9.27;1.85;;;18.70;99.90;;;;;;5022741;28;20088;-42
2022/07/10 12:43:13;;;;;;;6.38;1.90;;;18.70;99.90;;;;;;5027504;28;20053;-43
2022/07/10 12:45:40;;;;;;;6.55;1.70;;;18.80;99.90;;;;;;5029101;28;20041;-44
2022/07/10 12:48:08;;;;;;;3.65;1.38;;;18.80;99.90;;;;;;5030833;28;20085;-43
2022/07/10 12:50:35;;;;;;;5.50;1.38;;;18.80;99.90;;;;;;5027871;28;20478;-43
2022/07/10 12:53:08;;;;;;;4.78;1.63;;;18.90;99.90;;;;;;5031409;28;20128;-43